Strona główna
METAR-TAF:

METAR-TAF

Lotnisko :

Fritzlar, Niemcy

Szerokość geograficzna: 51-07N, Długość geograficzna: 009-17E, wysokość: 172 m

Aktualna obserwacja pogody

Raport powstał 46 minut temu, godzina 13:20 UTC
Wiatr 11 kt od południowo-południowy zachód
Temperatura 26°C
Wilgotność 54%
Ciśnienie 1013 hPa
Widzialność 10 km lub więcej
Przerywane chmury na wysokości 14000 ft

METAR: ETHF 131320Z 20011KT 9999 BKN140 26/16 Q1013 BLU BLU

czas: 16:06 (14:06 UTC)

Prognoza

Raport powstał 46 minut temu, godzina 13:20 UTC
Prognoza ważna od 13 godzina 14 UTC do 13 godzina 23 UTC
Wiatr 10 kt od południowo-południowy wschód
Widzialność 10 km lub więcej
Mało chmury na wysokości 6000 ft
Przerywane chmury na wysokości 11000 ft

TAF: ETHF 131320Z 1314/1323 15010KT 9999 NSW FEW060 BKN110

Obserwacja i prognoza pogody dla ponad 4000 lotnisk (raport METAR i TAF).

Dostępne stacje oznaczono żółtymi i czerwonymi punktami na mapie.

Najedź kursorem aby zobaczyć nazwę stacji.

Kliknij aby zobaczyć obserwacje i prognozy pogody.

Aby zmienić mapę: kliknij na zielony przycisk z czarnym krzyżykiem, aby powiększyć; na zielony przycisk z myślnikiem, aby pomniejszyć; na zielone strzałki, aby przejść do map sąsiednich.


METAR-TAF: